Time;durP1;ratioP1;P1;durP2;ratioP2;P2;SDS_P1;SDS_P2;PMS_P1;PMS_P2;Temp;Humidity;BMP_temperature;BMP_pressure;BME280_temperature;BME280_humidity;BME280_pressure;Samples;Min_cycle;Max_cycle;Signal;HPM_P1;HPM_P2
2021/07/26 00:00:39;;;;;;;4.72;3.95;;;;;;;19.07;88.52;96306.25;5040777;28;20206;-61
2021/07/26 00:03:05;;;;;;;4.43;3.70;;;;;;;19.29;87.42;96296.84;5047829;28;20514;-62
2021/07/26 00:05:30;;;;;;;5.85;3.75;;;;;;;19.20;87.92;96288.78;5040236;28;20213;-63
2021/07/26 00:07:56;;;;;;;4.13;3.80;;;;;;;19.22;87.87;96291.94;5044688;28;20737;-67
2021/07/26 00:10:21;;;;;;;6.00;4.07;;;;;;;19.15;88.27;96294.19;5044475;28;20197;-62
2021/07/26 00:12:46;;;;;;;4.30;3.90;;;;;;;19.04;88.67;96296.22;5043595;28;20644;-62
2021/07/26 00:15:12;;;;;;;4.35;3.90;;;;;;;19.09;88.66;96290.03;5048452;28;20701;-61
2021/07/26 00:17:37;;;;;;;5.28;4.20;;;;;;;18.97;89.39;96292.38;5041792;28;20193;-62
2021/07/26 00:20:03;;;;;;;4.90;4.30;;;;;;;18.84;90.00;96301.06;5033485;28;20198;-62
2021/07/26 00:22:29;;;;;;;4.78;4.28;;;;;;;18.93;89.39;96283.41;5034020;28;20652;-62
2021/07/26 00:24:54;;;;;;;4.28;3.88;;;;;;;18.87;89.78;96289.88;5042701;28;20188;-62
2021/07/26 00:27:20;;;;;;;6.68;4.05;;;;;;;18.93;89.42;96283.41;5042615;28;20318;-61
2021/07/26 00:29:45;;;;;;;4.70;4.00;;;;;;;19.07;88.50;96292.97;5041989;28;20288;-62
2021/07/26 00:32:10;;;;;;;4.22;3.90;;;;;;;19.02;88.01;96294.94;5038919;28;20187;-61
2021/07/26 00:34:36;;;;;;;4.38;3.88;;;;;;;18.91;88.11;96301.50;5040832;28;20200;-61
2021/07/26 00:37:02;;;;;;;4.43;3.80;;;;;;;18.84;88.33;96301.88;5042306;28;20190;-62
2021/07/26 00:39:34;;;;;;;8.70;3.75;;;;;;;18.69;89.64;96302.13;5046147;28;20217;-61
2021/07/26 00:42:00;;;;;;;4.13;3.65;;;;;;;18.69;89.71;96304.78;5019605;28;20234;-66
2021/07/26 00:44:27;;;;;;;4.10;3.70;;;;;;;18.75;88.96;96300.16;5044207;28;20353;-61
2021/07/26 00:46:54;;;;;;;4.30;3.90;;;;;;;18.65;89.27;96301.91;5041666;28;20315;-61
2021/07/26 00:49:21;;;;;;;4.13;3.65;;;;;;;18.81;87.95;96301.66;5035169;28;20205;-61
2021/07/26 00:51:49;;;;;;;6.22;3.60;;;;;;;18.92;86.63;96306.53;5040024;28;20182;-62
2021/07/26 00:54:18;;;;;;;4.28;3.55;;;;;;;18.64;88.00;96308.28;5044418;28;20189;-62
2021/07/26 00:56:47;;;;;;;3.93;3.53;;;;;;;18.64;87.90;96308.28;5039392;28;20631;-61
2021/07/26 00:59:14;;;;;;;4.47;3.63;;;;;;;18.61;88.00;96310.75;5036657;28;20197;-60
2021/07/26 01:01:40;;;;;;;4.27;3.77;;;;;;;18.36;89.46;96317.19;5033805;28;20182;-62
2021/07/26 01:04:06;;;;;;;5.40;4.33;;;;;;;18.40;89.19;96309.41;5050233;28;20182;-61
2021/07/26 01:06:32;;;;;;;3.87;3.47;;;;;;;18.21;90.45;96312.88;5044928;28;20189;-63
2021/07/26 01:08:57;;;;;;;4.60;3.70;;;;;;;18.34;89.74;96315.88;5041565;28;20240;-66
2021/07/26 01:11:23;;;;;;;4.87;4.23;;;;;;;18.15;90.82;96310.59;5042341;28;20651;-61
2021/07/26 01:13:48;;;;;;;5.97;4.13;;;;;;;18.24;90.55;96314.16;5050799;28;20189;-60
2021/07/26 01:16:14;;;;;;;5.40;4.20;;;;;;;18.17;90.74;96316.38;5040031;28;20658;-60
2021/07/26 01:18:39;;;;;;;4.10;3.70;;;;;;;18.03;92.18;96307.56;5036975;28;20194;-61
2021/07/26 01:21:07;;;;;;;5.27;3.77;;;;;;;18.27;91.20;96313.59;5050812;28;20205;-61
2021/07/26 01:23:35;;;;;;;4.87;4.23;;;;;;;18.32;91.02;96315.38;5046743;28;20178;-60
2021/07/26 01:26:02;;;;;;;5.00;4.33;;;;;;;18.34;91.08;96298.09;5045111;28;20193;-62
2021/07/26 01:28:32;;;;;;;4.50;3.85;;;;;;;18.28;91.87;96308.00;5050463;28;20209;-61
2021/07/26 01:30:59;;;;;;;6.17;3.80;;;;;;;18.24;92.73;96306.19;5048211;28;20222;-65
2021/07/26 01:33:24;;;;;;;4.97;3.87;;;;;;;18.25;93.12;96307.78;5047266;28;20182;-61
2021/07/26 01:35:51;;;;;;;6.07;3.97;;;;;;;18.47;91.55;96304.53;5052676;28;21051;-61
2021/07/26 01:38:17;;;;;;;4.73;4.13;;;;;;;18.33;92.64;96301.84;5051767;28;20217;-60
2021/07/26 01:40:44;;;;;;;4.73;3.80;;;;;;;18.39;92.36;96305.22;5050793;28;20206;-62
2021/07/26 01:43:10;;;;;;;4.33;3.83;;;;;;;18.36;92.83;96308.44;5045179;28;20174;-60
2021/07/26 01:45:37;;;;;;;3.97;3.50;;;;;;;18.65;90.83;96307.22;5051972;28;20200;-60
2021/07/26 01:48:11;;;;;;;4.30;3.90;;;;;;;18.59;91.06;96305.72;5049271;28;20186;-60
2021/07/26 01:50:59;;;;;;;5.60;4.03;;;;;;;18.40;92.47;96302.25;5040108;28;20185;-61
2021/07/26 01:53:26;;;;;;;5.63;3.40;;;;;;;18.21;93.45;96298.81;5035762;28;20260;-60
2021/07/26 01:55:51;;;;;;;4.83;3.90;;;;;;;18.23;92.96;96301.97;5043540;28;20178;-60
2021/07/26 01:58:16;;;;;;;4.23;3.83;;;;;;;18.24;93.45;96304.34;5040246;28;20190;-61
2021/07/26 02:00:42;;;;;;;4.40;4.00;;;;;;;18.31;93.21;96311.94;5047446;28;20206;-61
2021/07/26 02:03:07;;;;;;;4.37;3.97;;;;;;;18.29;93.45;96314.88;5040916;28;20212;-60
2021/07/26 02:05:33;;;;;;;5.17;4.03;;;;;;;18.42;92.49;96304.63;5036047;28;20210;-60
2021/07/26 02:07:58;;;;;;;5.07;4.13;;;;;;;18.46;92.21;96295.78;5047380;28;20188;-66
2021/07/26 02:10:23;;;;;;;4.60;4.00;;;;;;;18.34;93.20;96299.97;5047112;28;20190;-60
2021/07/26 02:12:49;;;;;;;4.93;4.33;;;;;;;18.44;92.29;96305.94;5043394;28;20556;-61
2021/07/26 02:15:14;;;;;;;4.80;4.27;;;;;;;18.39;92.67;96299.91;5035293;28;20174;-62
2021/07/26 02:17:40;;;;;;;5.07;4.33;;;;;;;18.49;91.75;96297.88;5035237;28;20611;-61
2021/07/26 02:20:06;;;;;;;4.57;4.17;;;;;;;18.35;92.64;96299.69;5033811;28;20206;-60
2021/07/26 02:22:31;;;;;;;4.27;3.87;;;;;;;18.20;93.49;96294.59;5033654;28;20274;-60
2021/07/26 02:24:58;;;;;;;6.23;4.27;;;;;;;18.27;93.11;96295.81;5033879;28;20186;-60
2021/07/26 02:27:23;;;;;;;4.30;3.90;;;;;;;18.11;93.89;96293.66;5048669;28;20213;-60
2021/07/26 02:29:49;;;;;;;8.27;4.13;;;;;;;18.00;94.74;96302.84;5043880;28;20193;-60
2021/07/26 02:32:14;;;;;;;4.30;3.90;;;;;;;17.98;94.74;96297.81;5044619;28;20261;-60
2021/07/26 02:34:40;;;;;;;4.33;4.00;;;;;;;18.20;93.11;96300.69;5044347;28;20189;-60
2021/07/26 02:37:05;;;;;;;4.53;4.13;;;;;;;18.16;93.35;96305.00;5038728;28;20196;-60
2021/07/26 02:39:30;;;;;;;7.83;4.60;;;;;;;18.16;93.19;96320.13;5039546;28;20582;-61
2021/07/26 02:41:56;;;;;;;5.40;4.30;;;;;;;18.20;93.13;96313.16;5037312;28;20202;-60
2021/07/26 02:44:21;;;;;;;5.47;4.33;;;;;;;18.20;92.83;96316.59;5039670;28;20186;-61
2021/07/26 02:46:47;;;;;;;4.50;3.77;;;;;;;18.11;93.09;96320.97;5043369;28;20183;-60
2021/07/26 02:49:12;;;;;;;6.83;4.00;;;;;;;17.99;93.65;96322.47;5044564;28;20312;-61
2021/07/26 02:51:37;;;;;;;4.40;4.00;;;;;;;18.20;91.93;96321.91;5045706;28;20651;-61
2021/07/26 02:54:03;;;;;;;6.50;3.83;;;;;;;18.13;92.47;96326.78;5040785;28;20190;-64
2021/07/26 02:56:28;;;;;;;4.40;3.70;;;;;;;18.01;93.03;96317.66;5033783;28;20178;-60
2021/07/26 02:58:53;;;;;;;4.03;3.63;;;;;;;18.11;92.58;96323.59;5045283;28;20224;-60
2021/07/26 03:01:19;;;;;;;6.13;3.77;;;;;;;18.16;92.18;96328.88;5042269;28;20729;-60
2021/07/26 03:03:44;;;;;;;5.03;4.00;;;;;;;18.19;91.90;96328.28;5049957;28;20698;-60
2021/07/26 03:06:17;;;;;;;5.17;3.53;;;;;;;18.32;90.67;96324.16;5037727;28;20178;-60
2021/07/26 03:08:43;;;;;;;6.07;4.20;;;;;;;18.38;90.16;96328.31;5044287;28;20659;-60
2021/07/26 03:11:10;;;;;;;4.30;3.90;;;;;;;18.26;90.94;96325.28;5038880;28;20638;-60
2021/07/26 03:13:37;;;;;;;5.17;3.87;;;;;;;18.18;91.79;96325.91;5049028;28;20182;-60
2021/07/26 03:16:05;;;;;;;4.20;3.73;;;;;;;18.31;91.00;96332.38;5030720;28;20198;-65
2021/07/26 03:18:30;;;;;;;5.17;3.60;;;;;;;18.30;90.97;96350.16;5041125;28;20182;-60
2021/07/26 03:20:55;;;;;;;5.33;3.90;;;;;;;18.42;90.13;96347.88;5040788;28;20545;-60
2021/07/26 03:23:21;;;;;;;4.50;3.67;;;;;;;18.51;89.69;96348.00;5032539;28;20185;-60
2021/07/26 03:25:46;;;;;;;4.17;3.77;;;;;;;18.52;89.29;96345.06;5042506;28;20683;-60
2021/07/26 03:28:11;;;;;;;5.40;3.90;;;;;;;18.54;89.28;96353.59;5046601;28;20191;-60
2021/07/26 03:30:37;;;;;;;4.37;3.77;;;;;;;18.45;90.09;96360.56;5034072;28;20183;-60
2021/07/26 03:33:03;;;;;;;8.63;3.83;;;;;;;18.63;88.96;96359.81;5036625;28;20178;-65
2021/07/26 03:35:28;;;;;;;5.97;3.60;;;;;;;18.52;89.41;96357.56;5036572;28;20183;-60
2021/07/26 03:37:54;;;;;;;5.40;3.40;;;;;;;18.53;89.45;96365.25;5036151;28;20181;-60
2021/07/26 03:40:20;;;;;;;4.23;3.67;;;;;;;18.46;89.79;96364.00;5037262;28;20237;-60
2021/07/26 03:42:46;;;;;;;5.23;3.77;;;;;;;18.56;89.27;96363.88;5039553;28;20636;-60
2021/07/26 03:45:14;;;;;;;4.50;3.90;;;;;;;18.46;89.73;96371.97;5036327;28;20196;-61
2021/07/26 03:47:40;;;;;;;4.43;3.43;;;;;;;18.40;89.59;96362.50;5035192;28;20187;-60
2021/07/26 03:50:08;;;;;;;4.93;3.80;;;;;;;18.39;89.38;96358.28;5034672;28;20191;-61
2021/07/26 03:52:43;;;;;;;4.00;3.47;;;;;;;18.42;89.34;96355.03;5047511;28;20559;-61
2021/07/26 03:55:10;;;;;;;4.22;3.53;;;;;;;18.59;87.90;96355.38;5036978;28;20551;-60
2021/07/26 03:57:35;;;;;;;4.45;3.85;;;;;;;18.69;87.29;96348.03;5043674;28;20179;-60
2021/07/26 04:00:00;;;;;;;10.80;3.60;;;;;;;18.68;87.17;96356.28;5044245;28;20209;-60
2021/07/26 04:02:26;;;;;;;4.63;4.22;;;;;;;18.43;88.50;96352.13;5043526;28;20213;-62
2021/07/26 04:04:51;;;;;;;6.03;3.67;;;;;;;18.35;88.65;96349.31;5035250;28;20201;-61
2021/07/26 04:07:23;;;;;;;9.00;4.10;;;;;;;18.42;88.67;96355.84;5045020;28;20186;-60
2021/07/26 04:09:53;;;;;;;7.07;4.00;;;;;;;18.41;88.90;96353.47;5042322;28;20674;-62
2021/07/26 04:12:23;;;;;;;7.23;3.97;;;;;;;18.54;87.86;96356.25;5036131;28;20530;-61
2021/07/26 04:14:48;;;;;;;4.40;3.93;;;;;;;18.49;87.94;96356.28;5048135;28;20179;-62
2021/07/26 04:17:14;;;;;;;6.60;3.50;;;;;;;18.50;87.51;96354.41;5034925;28;20186;-61
2021/07/26 04:19:39;;;;;;;3.93;3.57;;;;;;;18.44;86.68;96348.38;5042609;28;20537;-61
2021/07/26 04:22:04;;;;;;;4.20;3.67;;;;;;;18.54;85.66;96345.63;5043980;28;20216;-65
2021/07/26 04:24:30;;;;;;;3.97;3.10;;;;;;;18.44;85.83;96350.25;5048704;28;20213;-62
2021/07/26 04:26:55;;;;;;;4.43;3.58;;;;;;;18.21;87.18;96339.41;5041296;28;20719;-61
2021/07/26 04:29:21;;;;;;;4.70;3.40;;;;;;;18.31;86.49;96340.34;5033619;28;20175;-63
2021/07/26 04:31:48;;;;;;;5.37;3.60;;;;;;;18.37;85.83;96334.69;5045572;28;20541;-61
2021/07/26 04:34:14;;;;;;;5.33;3.30;;;;;;;18.44;85.35;96337.78;5032479;28;20212;-62
2021/07/26 04:36:39;;;;;;;3.47;3.20;;;;;;;18.50;85.10;96333.19;5038145;28;20190;-61
2021/07/26 04:39:05;;;;;;;4.57;3.30;;;;;;;18.52;84.91;96339.78;5045584;28;20218;-65
2021/07/26 04:41:33;;;;;;;3.47;3.15;;;;;;;18.66;83.99;96347.84;5042665;28;20610;-62
2021/07/26 04:43:58;;;;;;;3.67;3.37;;;;;;;18.79;83.16;96336.47;5040583;28;20328;-61
2021/07/26 04:46:23;;;;;;;4.00;3.20;;;;;;;18.93;82.61;96344.50;5032323;28;20265;-61
2021/07/26 04:48:49;;;;;;;3.40;3.10;;;;;;;18.83;82.81;96342.00;5033559;28;20198;-61
2021/07/26 04:51:15;;;;;;;3.60;3.10;;;;;;;18.91;82.44;96346.66;5040320;28;20655;-61
2021/07/26 04:53:40;;;;;;;3.78;3.30;;;;;;;18.90;82.42;96347.72;5040880;28;20323;-61
2021/07/26 04:56:05;;;;;;;6.63;3.33;;;;;;;18.95;82.18;96352.94;5040709;28;20190;-65
2021/07/26 04:58:31;;;;;;;4.13;3.45;;;;;;;19.02;82.00;96348.06;5034780;28;20183;-63
2021/07/26 05:00:56;;;;;;;4.63;3.20;;;;;;;18.98;81.99;96342.56;5042438;28;20571;-61
2021/07/26 05:03:22;;;;;;;4.83;3.67;;;;;;;18.99;81.93;96354.75;5044147;28;20187;-62
2021/07/26 05:05:47;;;;;;;4.32;3.63;;;;;;;18.95;82.06;96358.25;5041550;28;20268;-61
2021/07/26 05:08:12;;;;;;;3.45;3.03;;;;;;;18.98;81.90;96360.34;5040688;28;20177;-61
2021/07/26 05:10:39;;;;;;;3.85;3.10;;;;;;;18.99;81.49;96360.06;5041459;28;20194;-62
2021/07/26 05:13:04;;;;;;;3.80;3.33;;;;;;;19.08;81.03;96360.19;5038668;28;20627;-65
2021/07/26 05:15:30;;;;;;;5.82;3.33;;;;;;;19.04;81.28;96369.81;5036768;28;20277;-61
2021/07/26 05:17:55;;;;;;;3.88;3.47;;;;;;;19.04;81.27;96365.28;5042517;28;20554;-61
2021/07/26 05:20:21;;;;;;;5.32;3.40;;;;;;;19.04;81.38;96378.59;5041830;28;20202;-61
2021/07/26 05:22:46;;;;;;;4.78;3.55;;;;;;;19.11;81.27;96367.59;5034603;28;20236;-61
2021/07/26 05:25:12;;;;;;;5.23;2.80;;;;;;;19.17;80.86;96378.91;5043446;28;20672;-62
2021/07/26 05:27:37;;;;;;;6.43;3.38;;;;;;;19.22;80.62;96368.22;5031894;28;20186;-62
2021/07/26 05:30:04;;;;;;;3.10;2.75;;;;;;;19.19;80.75;96374.09;5042847;28;20189;-62
2021/07/26 05:32:30;;;;;;;4.78;3.08;;;;;;;19.25;80.43;96372.94;5049622;28;20216;-64
2021/07/26 05:34:55;;;;;;;3.13;2.72;;;;;;;19.21;80.60;96371.94;5041837;28;20195;-62
2021/07/26 05:37:20;;;;;;;3.45;3.10;;;;;;;19.28;80.16;96383.75;5039696;28;20213;-62
2021/07/26 05:39:46;;;;;;;3.72;3.00;;;;;;;19.26;79.64;96369.97;5032709;28;20230;-62
2021/07/26 05:42:11;;;;;;;5.10;3.25;;;;;;;19.32;79.54;96376.78;5036115;28;20191;-62
2021/07/26 05:44:41;;;;;;;4.45;3.17;;;;;;;19.40;78.98;96370.78;5039786;28;20582;-62
2021/07/26 05:47:08;;;;;;;3.63;3.08;;;;;;;19.65;78.10;96372.25;5047144;28;20252;-66
2021/07/26 05:49:34;;;;;;;11.45;3.10;;;;;;;19.88;77.08;96368.63;5047268;28;20598;-63
2021/07/26 05:52:00;;;;;;;4.00;2.58;;;;;;;20.20;75.36;96366.91;5042649;28;20186;-63
2021/07/26 05:54:25;;;;;;;4.43;2.85;;;;;;;20.42;74.99;96368.88;5044991;28;20276;-62
2021/07/26 05:56:51;;;;;;;2.60;2.40;;;;;;;20.89;73.15;96371.03;5046260;28;20257;-63
2021/07/26 05:59:17;;;;;;;3.65;2.85;;;;;;;21.34;70.60;96365.69;5046027;28;20209;-62
2021/07/26 06:01:49;;;;;;;2.88;2.50;;;;;;;21.58;69.04;96368.78;5041237;28;20206;-62
2021/07/26 06:04:19;;;;;;;3.65;2.63;;;;;;;22.06;67.51;96362.75;5044366;28;20274;-64
2021/07/26 06:06:46;;;;;;;4.00;2.30;;;;;;;22.20;65.71;96368.72;5050108;28;20264;-63
2021/07/26 06:09:12;;;;;;;4.47;2.10;;;;;;;22.11;65.66;96375.94;5047449;28;20183;-63
2021/07/26 06:11:39;;;;;;;2.35;2.00;;;;;;;22.37;65.06;96371.44;5042256;28;20190;-62
2021/07/26 06:14:05;;;;;;;2.58;2.33;;;;;;;22.66;63.58;96368.97;5047983;28;20237;-62
2021/07/26 06:16:30;;;;;;;2.47;2.20;;;;;;;22.83;62.64;96376.22;5031546;28;20190;-62
2021/07/26 06:18:58;;;;;;;3.00;2.38;;;;;;;22.98;61.57;96367.72;5041697;28;20643;-62
2021/07/26 06:21:23;;;;;;;3.45;2.20;;;;;;;23.09;61.64;96371.66;5041027;28;20297;-63
2021/07/26 06:23:48;;;;;;;7.28;3.00;;;;;;;23.02;61.80;96375.88;5045687;28;20695;-62
2021/07/26 06:26:14;;;;;;;2.35;2.15;;;;;;;22.95;61.97;96370.25;5044998;28;20243;-62
2021/07/26 06:28:39;;;;;;;4.63;2.55;;;;;;;23.21;61.41;96371.78;5043880;28;20189;-61
2021/07/26 06:31:06;;;;;;;2.65;2.40;;;;;;;23.33;61.18;96373.03;5045042;28;20212;-61
2021/07/26 06:33:32;;;;;;;4.15;2.70;;;;;;;23.13;61.16;96380.59;5044168;28;20189;-61
2021/07/26 06:36:01;;;;;;;4.22;2.67;;;;;;;23.18;61.62;96383.09;5033503;28;20200;-62
2021/07/26 06:38:26;;;;;;;3.45;2.80;;;;;;;23.09;61.83;96382.34;5041197;28;20440;-61
2021/07/26 06:40:51;;;;;;;2.67;2.40;;;;;;;22.64;63.18;96381.84;5048800;28;20198;-62
2021/07/26 06:43:17;;;;;;;2.75;2.50;;;;;;;22.88;63.04;96388.66;5036531;28;20214;-62
2021/07/26 06:45:42;;;;;;;4.07;2.58;;;;;;;23.27;61.96;96393.03;5044791;28;20632;-62
2021/07/26 06:48:07;;;;;;;2.70;2.50;;;;;;;23.51;61.92;96396.78;5043577;28;20182;-66
2021/07/26 06:50:33;;;;;;;3.13;2.13;;;;;;;23.60;61.19;96396.75;5037159;28;20182;-62
2021/07/26 06:52:58;;;;;;;3.17;2.53;;;;;;;23.76;60.00;96391.66;5044602;28;20586;-62
2021/07/26 06:55:24;;;;;;;2.63;2.40;;;;;;;23.95;59.27;96406.25;5047568;28;20179;-62
2021/07/26 06:57:49;;;;;;;2.95;2.10;;;;;;;24.09;58.84;96403.34;5042885;28;20244;-62
2021/07/26 07:00:15;;;;;;;3.53;2.30;;;;;;;24.23;58.19;96400.47;5045168;28;20194;-62
2021/07/26 07:02:41;;;;;;;3.83;2.55;;;;;;;24.27;58.30;96404.06;5046615;28;20182;-62
2021/07/26 07:05:06;;;;;;;4.38;2.33;;;;;;;24.41;58.23;96410.75;5045925;28;20217;-62
2021/07/26 07:07:32;;;;;;;2.05;1.92;;;;;;;24.49;57.86;96408.38;5036169;28;20257;-61
2021/07/26 07:09:57;;;;;;;3.42;2.33;;;;;;;24.54;58.42;96413.53;5036256;28;20267;-60
2021/07/26 07:12:22;;;;;;;2.83;2.28;;;;;;;24.65;57.70;96414.72;5049327;28;20661;-60
2021/07/26 07:14:48;;;;;;;2.60;2.40;;;;;;;24.81;57.52;96426.44;5040632;28;20225;-62
2021/07/26 07:17:13;;;;;;;2.58;2.33;;;;;;;24.68;57.25;96419.44;5032957;28;20193;-62
2021/07/26 07:19:43;;;;;;;2.63;2.20;;;;;;;24.73;57.29;96429.97;5047124;28;20229;-64
2021/07/26 07:22:09;;;;;;;3.58;2.85;;;;;;;24.78;57.78;96422.53;5042920;28;20189;-60
2021/07/26 07:24:34;;;;;;;3.40;2.50;;;;;;;24.81;57.54;96421.84;5043833;28;20218;-62
2021/07/26 07:27:00;;;;;;;2.60;2.40;;;;;;;24.90;57.72;96423.72;5040819;28;20221;-61
2021/07/26 07:29:25;;;;;;;2.67;2.40;;;;;;;24.81;58.38;96413.81;5047370;28;20182;-62
2021/07/26 07:31:50;;;;;;;6.20;2.50;;;;;;;24.96;57.60;96419.75;5037027;28;20724;-62
2021/07/26 07:34:16;;;;;;;3.13;2.42;;;;;;;25.10;57.54;96409.53;5037510;28;20208;-62
2021/07/26 07:36:42;;;;;;;2.50;2.30;;;;;;;25.02;57.46;96421.88;5043014;28;20182;-62
2021/07/26 07:39:09;;;;;;;3.00;2.45;;;;;;;25.21;56.67;96421.41;5040811;28;20234;-62
2021/07/26 07:41:34;;;;;;;3.10;2.50;;;;;;;25.03;56.82;96428.03;5042031;28;20237;-62
2021/07/26 07:44:00;;;;;;;5.65;2.60;;;;;;;25.09;56.95;96432.88;5035882;28;20618;-62
2021/07/26 07:46:25;;;;;;;2.60;2.40;;;;;;;24.89;58.08;96431.00;5037917;28;20181;-63
2021/07/26 07:48:51;;;;;;;2.85;2.65;;;;;;;24.85;58.94;96438.09;5033037;28;20207;-62
2021/07/26 07:51:18;;;;;;;2.90;2.60;;;;;;;24.94;58.28;96438.06;5037698;28;20191;-62
2021/07/26 07:53:45;;;;;;;3.28;2.97;;;;;;;24.52;59.25;96434.53;5047567;28;20236;-63
2021/07/26 07:56:10;;;;;;;5.50;3.00;;;;;;;24.52;58.92;96431.84;5052014;28;20182;-66
2021/07/26 07:58:36;;;;;;;2.65;2.45;;;;;;;24.48;58.13;96436.25;5038715;28;20646;-62
2021/07/26 08:01:03;;;;;;;4.82;2.85;;;;;;;24.78;57.85;96433.25;5036844;28;20206;-62
2021/07/26 08:03:28;;;;;;;4.60;2.65;;;;;;;25.07;57.43;96440.50;5046841;28;20551;-62
2021/07/26 08:05:54;;;;;;;2.47;2.28;;;;;;;25.40;56.90;96445.88;5046048;28;20177;-62
2021/07/26 08:08:19;;;;;;;3.00;2.75;;;;;;;25.42;56.67;96438.25;5041222;28;20205;-62
2021/07/26 08:10:45;;;;;;;3.85;2.78;;;;;;;25.41;56.68;96444.00;5040596;28;20206;-62
2021/07/26 08:13:11;;;;;;;6.18;2.47;;;;;;;25.61;55.92;96451.22;5042000;28;20193;-66
2021/07/26 08:15:37;;;;;;;3.05;2.53;;;;;;;25.79;55.60;96449.16;5044527;28;20320;-63
2021/07/26 08:18:03;;;;;;;3.92;3.00;;;;;;;25.96;54.93;96451.66;5045233;28;20197;-62
2021/07/26 08:20:29;;;;;;;2.92;2.58;;;;;;;26.35;54.69;96456.44;5035145;28;20294;-62
2021/07/26 08:22:54;;;;;;;4.80;3.17;;;;;;;26.51;54.02;96453.84;5036287;28;20182;-62
2021/07/26 08:25:20;;;;;;;4.57;2.42;;;;;;;26.58;53.53;96453.28;5033006;28;20193;-62
2021/07/26 08:27:52;;;;;;;2.90;2.38;;;;;;;27.00;52.38;96451.91;5039714;28;20734;-62
2021/07/26 08:30:20;;;;;;;3.45;2.30;;;;;;;27.22;51.49;96451.38;5045277;28;20226;-63
2021/07/26 08:32:45;;;;;;;2.50;2.30;;;;;;;27.49;50.61;96449.03;5044294;28;20186;-62
2021/07/26 08:35:10;;;;;;;2.33;2.05;;;;;;;27.58;50.28;96450.50;5043383;28;20181;-62
2021/07/26 08:37:36;;;;;;;4.13;2.30;;;;;;;27.64;50.58;96437.56;5042147;28;20189;-62
2021/07/26 08:40:02;;;;;;;2.78;2.30;;;;;;;27.80;49.29;96440.28;5036248;28;21684;-62
2021/07/26 08:42:30;;;;;;;2.15;1.95;;;;;;;27.91;48.44;96441.34;5037647;28;20194;-62
2021/07/26 08:44:55;;;;;;;2.55;2.10;;;;;;;28.13;47.63;96442.69;5046693;28;20259;-62
2021/07/26 08:47:23;;;;;;;3.70;2.38;;;;;;;28.35;45.90;96432.06;5041875;28;20252;-62
2021/07/26 08:49:50;;;;;;;2.45;2.17;;;;;;;28.44;46.24;96438.03;5044692;28;20189;-62
2021/07/26 08:52:18;;;;;;;2.42;2.22;;;;;;;27.92;48.47;96429.44;5044907;28;20606;-67
2021/07/26 08:54:47;;;;;;;4.90;2.40;;;;;;;27.58;49.19;96434.34;5045553;28;20194;-62
2021/07/26 08:57:12;;;;;;;2.75;2.13;;;;;;;27.85;47.58;96432.72;5042039;28;20191;-62
2021/07/26 08:59:38;;;;;;;2.20;2.00;;;;;;;27.93;47.30;96430.97;5033148;28;20244;-62
2021/07/26 09:02:03;;;;;;;2.47;2.20;;;;;;;28.13;47.40;96438.06;5044529;28;20192;-63
2021/07/26 09:04:29;;;;;;;2.67;2.00;;;;;;;28.22;46.63;96437.88;5032622;28;20199;-61
2021/07/26 09:06:55;;;;;;;2.03;1.85;;;;;;;27.80;47.74;96434.88;5046930;28;20197;-62
2021/07/26 09:09:41;;;;;;;2.47;2.28;;;;;;;27.86;46.10;96433.50;5037916;28;20247;-62
2021/07/26 09:12:07;;;;;;;2.92;2.03;;;;;;;27.71;47.47;96441.22;5045086;28;20197;-62
2021/07/26 09:14:37;;;;;;;2.45;2.10;;;;;;;27.83;47.53;96434.97;5031534;28;20182;-62
2021/07/26 09:17:03;;;;;;;2.30;2.10;;;;;;;27.80;48.07;96427.59;5046200;28;20205;-62
2021/07/26 09:19:58;;;;;;;2.90;2.20;;;;;;;27.78;47.37;96437.91;5036318;28;20656;-78
2021/07/26 09:22:28;;;;;;;4.00;2.00;;;;;;;27.91;48.08;96430.56;5026974;28;20209;-62
2021/07/26 09:25:15;;;;;;;3.13;1.75;;;;;;;28.10;46.35;96434.13;5047342;28;20191;-63
2021/07/26 09:28:00;;;;;;;2.03;1.83;;;;;;;28.06;46.48;96438.66;5047344;28;20182;-64
2021/07/26 09:30:33;;;;;;;2.22;2.03;;;;;;;28.04;45.45;96432.81;5018191;28;20186;-64
2021/07/26 09:33:04;;;;;;;2.00;1.90;;;;;;;27.91;46.92;96427.88;5042237;28;20261;-63
2021/07/26 09:35:29;;;;;;;2.78;2.13;;;;;;;27.97;46.66;96437.25;5037357;28;20222;-63
2021/07/26 09:38:04;;;;;;;3.10;2.33;;;;;;;28.13;44.65;96434.59;5048915;28;20226;-62
2021/07/26 09:40:32;;;;;;;3.17;1.80;;;;;;;27.65;45.97;96436.41;5034396;28;20206;-63
2021/07/26 09:43:25;;;;;;;2.20;2.00;;;;;;;27.89;45.49;96428.19;5049091;28;20597;-62
2021/07/26 09:45:53;;;;;;;6.40;2.47;;;;;;;28.03;46.42;96433.94;5022035;28;20198;-64
2021/07/26 09:48:21;;;;;;;2.40;2.20;;;;;;;28.45;44.69;96428.81;5047182;28;20186;-63
2021/07/26 09:50:49;;;;;;;2.05;1.77;;;;;;;28.19;45.05;96417.81;5046370;28;20190;-63
2021/07/26 09:53:23;;;;;;;3.50;1.90;;;;;;;28.05;45.78;96423.59;5041857;28;20542;-65
2021/07/26 09:55:56;;;;;;;2.10;1.90;;;;;;;28.39;45.45;96421.34;5049803;28;20186;-61
2021/07/26 09:58:37;;;;;;;2.67;2.00;;;;;;;28.53;44.87;96417.03;5042069;28;20180;-62
2021/07/26 10:01:04;;;;;;;3.55;1.73;;;;;;;28.09;44.65;96416.38;5040223;28;20663;-61
2021/07/26 10:03:30;;;;;;;2.22;2.00;;;;;;;27.78;44.52;96402.13;5050301;28;20181;-62
2021/07/26 10:05:56;;;;;;;1.83;1.73;;;;;;;27.61;46.29;96406.72;5040914;28;20602;-62
2021/07/26 10:08:22;;;;;;;3.00;1.98;;;;;;;27.43;46.89;96410.00;5051742;28;20244;-62
2021/07/26 10:10:48;;;;;;;3.28;1.92;;;;;;;27.17;46.72;96408.56;5043099;28;20190;-59
2021/07/26 10:13:14;;;;;;;2.17;1.98;;;;;;;26.54;48.74;96398.59;5039269;28;20543;-62
2021/07/26 10:15:40;;;;;;;2.22;2.00;;;;;;;26.88;48.71;96404.28;5048919;28;20182;-62
2021/07/26 10:18:06;;;;;;;3.58;2.63;;;;;;;26.84;50.45;96402.59;5036350;28;20198;-61
2021/07/26 10:20:39;;;;;;;2.60;2.28;;;;;;;26.30;50.76;96402.91;5039271;28;20198;-61
2021/07/26 10:23:19;;;;;;;2.10;1.90;;;;;;;26.61;50.94;96406.91;5043782;28;20240;-61
2021/07/26 10:25:54;;;;;;;2.20;2.00;;;;;;;26.59;49.99;96403.75;5048180;28;20205;-61
2021/07/26 10:28:31;;;;;;;2.45;2.25;;;;;;;25.98;51.23;96404.53;5036025;28;20185;-62
2021/07/26 10:30:57;;;;;;;3.08;2.78;;;;;;;26.15;50.28;96397.38;5052173;28;20264;-62
2021/07/26 10:33:23;;;;;;;2.60;2.40;;;;;;;26.24;51.12;96406.94;5040534;28;20217;-61
2021/07/26 10:35:51;;;;;;;2.33;2.13;;;;;;;25.86;51.55;96404.50;5038736;28;20191;-61
2021/07/26 10:38:52;;;;;;;2.55;2.20;;;;;;;26.05;50.71;96401.28;5043663;28;20276;-66
2021/07/26 10:41:42;;;;;;;2.95;2.30;;;;;;;26.15;50.30;96392.00;5042631;28;20363;-67
2021/07/26 10:44:08;;;;;;;2.60;2.08;;;;;;;25.89;51.95;96392.31;5036158;28;20534;-61
2021/07/26 10:46:53;;;;;;;2.25;1.88;;;;;;;26.80;49.19;96391.75;5048482;28;20194;-64
2021/07/26 10:49:19;;;;;;;6.57;2.03;;;;;;;26.88;48.33;96388.16;5042756;28;20265;-66
2021/07/26 10:51:50;;;;;;;2.20;2.00;;;;;;;27.39;47.26;96384.91;5049758;28;20205;-61
2021/07/26 10:54:35;;;;;;;2.05;1.95;;;;;;;27.47;47.84;96382.09;5040274;28;20170;-65
2021/07/26 10:57:00;;;;;;;2.35;1.90;;;;;;;28.09;46.75;96375.16;5034070;28;20273;-61
2021/07/26 10:59:26;;;;;;;2.58;2.00;;;;;;;28.16;45.28;96369.19;5043178;28;20270;-62
2021/07/26 11:02:04;;;;;;;2.33;2.13;;;;;;;28.16;45.91;96369.97;5049280;28;20194;-61
2021/07/26 11:04:38;;;;;;;2.92;1.85;;;;;;;28.01;46.81;96373.44;5032959;28;20213;-62
2021/07/26 11:07:05;;;;;;;2.33;2.13;;;;;;;28.41;46.57;96368.66;5040858;28;20208;-61
2021/07/26 11:09:37;;;;;;;3.85;2.03;;;;;;;27.52;47.01;96365.69;5035475;28;20182;-61
2021/07/26 11:12:05;;;;;;;2.22;2.05;;;;;;;26.79;47.79;96368.66;5045848;28;20202;-61
2021/07/26 11:14:31;;;;;;;2.25;1.98;;;;;;;27.08;48.29;96366.78;5040548;28;20191;-62
2021/07/26 11:17:04;;;;;;;2.28;2.08;;;;;;;27.52;47.29;96364.91;5041070;28;20201;-61
2021/07/26 11:19:40;;;;;;;2.28;2.05;;;;;;;27.82;46.43;96367.97;5041703;28;20542;-62
2021/07/26 11:22:14;;;;;;;2.60;2.08;;;;;;;27.91;47.15;96361.28;5034410;28;20246;-61
2021/07/26 11:24:50;;;;;;;2.72;2.28;;;;;;;27.02;48.17;96368.16;5040297;28;20242;-61
2021/07/26 11:27:22;;;;;;;3.90;2.25;;;;;;;26.74;48.48;96365.41;5041304;28;20552;-66
2021/07/26 11:29:49;;;;;;;2.35;2.00;;;;;;;27.42;47.46;96358.06;5043293;28;20185;-61
2021/07/26 11:32:18;;;;;;;2.60;2.22;;;;;;;27.79;45.85;96352.50;5041935;28;20651;-61
2021/07/26 11:34:43;;;;;;;2.92;2.35;;;;;;;27.25;46.38;96350.34;5046474;28;20188;-61